createdAt,value
2024-05-09T00:01:19.302Z,9.80
2024-05-09T00:03:50.872Z,9.74
2024-05-09T00:06:23.392Z,9.66
2024-05-09T00:08:54.831Z,9.59
2024-05-09T00:11:25.126Z,9.53
2024-05-09T00:13:57.043Z,9.48
2024-05-09T00:16:27.448Z,9.43
2024-05-09T00:18:59.535Z,9.40
2024-05-09T00:21:29.812Z,9.37
2024-05-09T00:24:01.390Z,9.36
2024-05-09T00:26:31.726Z,9.34
2024-05-09T00:29:03.396Z,9.32
2024-05-09T00:31:33.606Z,9.29
2024-05-09T00:34:05.449Z,9.27
2024-05-09T00:36:36.230Z,9.25
2024-05-09T00:39:07.944Z,9.21
2024-05-09T00:41:38.128Z,9.17
2024-05-09T00:44:09.824Z,9.13
2024-05-09T00:46:40.142Z,9.10
2024-05-09T00:49:11.961Z,9.07
2024-05-09T00:51:42.225Z,9.05
2024-05-09T00:54:14.606Z,9.03
2024-05-09T00:56:44.814Z,9.00
2024-05-09T00:59:16.630Z,8.97
2024-05-09T01:01:46.931Z,8.94
2024-05-09T01:04:18.865Z,8.90
2024-05-09T01:06:49.188Z,8.86
2024-05-09T01:09:20.715Z,8.82
2024-05-09T01:11:51.475Z,8.76
2024-05-09T01:14:23.467Z,8.71
2024-05-09T01:16:53.873Z,8.66
2024-05-09T01:19:28.931Z,8.61
2024-05-09T01:22:00.548Z,8.58
2024-05-09T01:24:30.912Z,8.54
2024-05-09T01:27:02.437Z,8.49
2024-05-09T01:29:32.990Z,8.45
2024-05-09T01:32:05.116Z,8.41
2024-05-09T01:34:35.658Z,8.38
2024-05-09T01:37:07.107Z,8.34
2024-05-09T01:39:37.574Z,8.29
2024-05-09T01:42:09.191Z,8.26
2024-05-09T01:44:40.019Z,8.23
2024-05-09T01:47:11.502Z,8.19
2024-05-09T01:49:42.178Z,8.15
2024-05-09T01:52:14.176Z,8.12
2024-05-09T01:54:45.096Z,8.08
2024-05-09T01:57:16.662Z,8.02
2024-05-09T01:59:47.084Z,7.96
2024-05-09T02:02:18.836Z,7.92
2024-05-09T02:04:50.229Z,7.86
2024-05-09T02:07:22.307Z,7.80
2024-05-09T02:09:53.332Z,7.74
2024-05-09T02:12:24.942Z,7.69
2024-05-09T02:14:55.556Z,7.64
2024-05-09T02:17:27.257Z,7.62
2024-05-09T02:19:57.905Z,7.59
2024-05-09T02:22:29.298Z,7.56
2024-05-09T02:24:59.749Z,7.52
2024-05-09T02:27:31.523Z,7.49
2024-05-09T02:30:01.931Z,7.45
2024-05-09T02:32:33.721Z,7.42
2024-05-09T02:35:04.407Z,7.38
2024-05-09T02:37:36.080Z,7.34
2024-05-09T02:40:09.144Z,7.30
2024-05-09T02:42:43.251Z,7.28
2024-05-09T02:45:13.916Z,7.25
2024-05-09T02:47:45.499Z,7.21
2024-05-09T02:50:23.043Z,7.18
2024-05-09T02:53:02.159Z,7.14
2024-05-09T02:55:33.256Z,7.11
2024-05-09T02:58:05.211Z,7.08
2024-05-09T03:00:39.741Z,7.06
2024-05-09T03:03:15.753Z,7.02
2024-05-09T03:05:49.804Z,7.00
2024-05-09T03:08:20.190Z,6.98
2024-05-09T03:10:51.980Z,6.97
2024-05-09T03:13:22.078Z,6.96
2024-05-09T03:15:53.781Z,6.95
2024-05-09T03:18:24.056Z,6.94
2024-05-09T03:20:55.956Z,6.94
2024-05-09T03:23:26.193Z,6.93
2024-05-09T03:25:57.879Z,6.92
2024-05-09T03:28:28.206Z,6.91
2024-05-09T03:30:59.796Z,6.91
2024-05-09T03:33:30.707Z,6.91
2024-05-09T03:36:02.935Z,6.91
2024-05-09T03:38:41.938Z,6.92
2024-05-09T03:41:13.955Z,6.94
2024-05-09T03:43:44.412Z,6.97
2024-05-09T03:46:16.179Z,7.01
2024-05-09T03:48:46.580Z,7.07
2024-05-09T03:51:19.036Z,7.11
2024-05-09T03:53:49.396Z,7.15
2024-05-09T03:56:21.146Z,7.21
2024-05-09T03:58:51.619Z,7.26
2024-05-09T04:01:25.498Z,7.33
2024-05-09T04:03:56.310Z,7.40
2024-05-09T04:06:28.195Z,7.47
2024-05-09T04:08:58.905Z,7.55
2024-05-09T04:11:30.592Z,7.63
2024-05-09T04:14:00.970Z,7.73
2024-05-09T04:16:32.870Z,7.82
2024-05-09T04:19:03.536Z,7.91
2024-05-09T04:21:35.348Z,8.00
2024-05-09T04:24:05.887Z,8.11
2024-05-09T04:26:37.401Z,8.20
2024-05-09T04:29:08.072Z,8.31
2024-05-09T04:31:39.928Z,8.41
2024-05-09T04:34:10.448Z,8.51
2024-05-09T04:36:44.554Z,8.60
2024-05-09T04:39:14.990Z,8.67
2024-05-09T04:41:46.357Z,8.72
2024-05-09T04:44:16.733Z,8.78
2024-05-09T04:46:48.429Z,8.83
2024-05-09T04:49:19.005Z,8.88
2024-05-09T04:51:50.526Z,8.95
2024-05-09T04:54:29.896Z,9.01
2024-05-09T04:57:09.483Z,9.07
2024-05-09T04:59:39.933Z,9.12
2024-05-09T05:02:11.757Z,9.19
2024-05-09T05:04:42.569Z,9.29
2024-05-09T05:07:14.804Z,9.44
2024-05-09T05:09:45.222Z,9.59
2024-05-09T05:12:36.378Z,9.80
2024-05-09T05:15:08.066Z,10.00
2024-05-09T05:17:38.708Z,10.14
2024-05-09T05:20:15.071Z,10.31
2024-05-09T05:22:48.049Z,10.49
2024-05-09T05:25:18.694Z,10.69
2024-05-09T05:27:50.458Z,10.77
2024-05-09T05:30:25.277Z,10.83
2024-05-09T05:33:01.071Z,10.86
2024-05-09T05:35:31.874Z,10.85
2024-05-09T05:38:03.789Z,10.91
2024-05-09T05:40:37.197Z,10.98
2024-05-09T05:43:15.834Z,11.09
2024-05-09T05:45:48.334Z,11.22
2024-05-09T05:48:19.287Z,11.36
2024-05-09T05:50:51.129Z,11.51
2024-05-09T05:53:22.085Z,11.69
2024-05-09T05:55:53.757Z,11.84
2024-05-09T05:58:24.348Z,11.93
2024-05-09T06:00:56.054Z,12.04
2024-05-09T06:03:26.827Z,12.16
2024-05-09T06:06:02.127Z,12.34
2024-05-09T06:08:35.075Z,12.50
2024-05-09T06:11:05.627Z,12.68
2024-05-09T06:13:37.462Z,12.86
2024-05-09T06:16:07.781Z,13.11
2024-05-09T06:18:40.677Z,13.34
2024-05-09T06:21:11.061Z,13.48
2024-05-09T06:23:49.016Z,13.64
2024-05-09T06:26:21.127Z,13.77
2024-05-09T06:28:51.660Z,13.95
2024-05-09T06:31:24.257Z,14.24
2024-05-09T06:33:55.231Z,14.61
2024-05-09T06:36:27.262Z,15.08
2024-05-09T06:38:57.716Z,15.51
2024-05-09T06:41:30.065Z,15.89
2024-05-09T06:44:01.653Z,16.17
2024-05-09T06:46:33.682Z,16.52
2024-05-09T06:49:08.533Z,16.90
2024-05-09T06:51:43.198Z,17.07
2024-05-09T06:54:15.908Z,17.29
2024-05-09T06:56:46.458Z,17.58
2024-05-09T06:59:18.228Z,17.88
2024-05-09T07:01:48.683Z,18.13
2024-05-09T07:04:20.273Z,18.36
2024-05-09T07:06:51.243Z,18.69
2024-05-09T07:09:23.293Z,19.07
2024-05-09T07:11:53.964Z,19.26
2024-05-09T07:14:25.754Z,19.47
2024-05-09T07:16:56.984Z,19.65
2024-05-09T07:19:28.802Z,19.87
2024-05-09T07:22:00.244Z,20.19
2024-05-09T07:24:32.090Z,20.58
2024-05-09T07:27:05.425Z,21.00
2024-05-09T07:29:38.516Z,21.40
2024-05-09T07:32:09.449Z,21.88
2024-05-09T07:34:41.412Z,22.40
2024-05-09T07:37:13.016Z,22.70
2024-05-09T07:39:44.588Z,22.94
2024-05-09T07:42:14.846Z,23.08
2024-05-09T07:44:46.473Z,23.42
2024-05-09T07:48:28.949Z,23.84
2024-05-09T07:53:34.366Z,24.55
2024-05-09T07:55:36.010Z,24.84
2024-05-09T07:58:06.670Z,24.99
2024-05-09T08:00:38.378Z,25.35
2024-05-09T08:03:10.260Z,25.75
2024-05-09T08:05:41.902Z,26.04
2024-05-09T08:08:12.524Z,26.13
2024-05-09T08:10:44.040Z,26.40
2024-05-09T08:13:14.606Z,26.74
2024-05-09T08:15:46.206Z,27.06
2024-05-09T08:18:17.041Z,27.26
2024-05-09T08:20:49.138Z,27.33
2024-05-09T08:23:19.605Z,27.62
2024-05-09T08:25:51.136Z,27.79
2024-05-09T08:28:21.641Z,27.96
2024-05-09T08:30:53.640Z,28.44
2024-05-09T08:33:24.145Z,28.85
2024-05-09T08:35:58.797Z,29.23
2024-05-09T08:38:29.057Z,29.69
2024-05-09T08:41:01.602Z,30.04
2024-05-09T08:43:32.156Z,30.34
2024-05-09T08:46:04.126Z,30.53
2024-05-09T08:48:36.170Z,30.99
2024-05-09T08:51:08.074Z,31.51
2024-05-09T08:53:38.534Z,32.00
2024-05-09T08:56:10.184Z,32.49
2024-05-09T08:58:40.529Z,32.95
2024-05-09T09:01:12.252Z,33.33
2024-05-09T09:03:43.145Z,33.28
2024-05-09T09:06:15.456Z,33.38
2024-05-09T09:08:45.806Z,33.76
2024-05-09T09:11:17.783Z,34.00
2024-05-09T09:13:48.218Z,34.01
2024-05-09T09:16:20.097Z,34.04
2024-05-09T09:18:51.372Z,34.09
2024-05-09T09:21:23.016Z,34.09
2024-05-09T09:23:53.589Z,34.41
2024-05-09T09:26:25.647Z,34.78
2024-05-09T09:28:59.756Z,35.04
2024-05-09T09:31:31.872Z,35.34
2024-05-09T09:34:06.141Z,35.85
2024-05-09T09:36:38.911Z,36.27
2024-05-09T09:39:09.878Z,36.49
2024-05-09T09:41:41.837Z,36.11
2024-05-09T09:44:12.020Z,35.39
2024-05-09T09:46:44.319Z,34.86
2024-05-09T09:49:14.958Z,34.69
2024-05-09T09:51:46.971Z,35.09
2024-05-09T09:54:18.271Z,35.48
2024-05-09T09:56:50.318Z,35.75
2024-05-09T09:59:20.666Z,35.81
2024-05-09T10:01:52.497Z,35.68
2024-05-09T10:04:23.359Z,35.74
2024-05-09T10:06:58.567Z,35.92
2024-05-09T10:09:31.528Z,36.01
2024-05-09T10:12:11.826Z,36.04
2024-05-09T10:14:46.467Z,36.20
2024-05-09T10:17:19.207Z,36.46
2024-05-09T10:19:49.939Z,36.64
2024-05-09T10:22:28.684Z,36.79
2024-05-09T10:25:10.437Z,36.76
2024-05-09T10:27:42.211Z,36.74
2024-05-09T10:30:26.005Z,36.77
2024-05-09T10:33:02.425Z,37.03
2024-05-09T10:35:33.057Z,37.48
2024-05-09T10:38:07.712Z,38.17
2024-05-09T10:40:40.533Z,38.97
2024-05-09T10:43:16.345Z,39.75
2024-05-09T10:45:49.304Z,40.47
2024-05-09T10:48:19.826Z,40.99
2024-05-09T10:50:51.705Z,41.04
2024-05-09T10:53:23.370Z,41.06
2024-05-09T10:56:01.331Z,41.12
2024-05-09T10:58:33.024Z,40.90
2024-05-09T11:01:06.779Z,40.78
2024-05-09T11:03:39.900Z,40.67
2024-05-09T11:06:11.464Z,40.04
2024-05-09T11:08:44.157Z,39.49
2024-05-09T11:11:14.587Z,39.00
2024-05-09T11:13:46.454Z,38.81
2024-05-09T11:16:19.761Z,38.55
2024-05-09T11:18:56.155Z,38.34
2024-05-09T11:21:28.322Z,38.04
2024-05-09T11:23:59.006Z,38.25
2024-05-09T11:26:33.832Z,38.82
2024-05-09T11:29:06.635Z,39.38
2024-05-09T11:31:46.879Z,39.70
2024-05-09T11:34:19.327Z,39.59
2024-05-09T11:36:50.013Z,39.48
2024-05-09T11:39:21.955Z,39.27
2024-05-09T11:41:52.916Z,38.48
2024-05-09T11:44:24.750Z,38.15
2024-05-09T11:46:55.674Z,37.67
2024-05-09T11:49:27.710Z,36.85
2024-05-09T11:51:58.138Z,36.51
2024-05-09T11:54:29.847Z,36.60
2024-05-09T11:57:00.387Z,36.58
2024-05-09T11:59:32.736Z,35.47
2024-05-09T12:02:03.547Z,35.24
2024-05-09T12:04:35.606Z,35.71
2024-05-09T12:07:07.302Z,36.18
2024-05-09T12:09:40.265Z,37.39
2024-05-09T12:12:10.803Z,38.75
2024-05-09T12:14:43.048Z,39.90
2024-05-09T12:17:13.661Z,40.42
2024-05-09T12:19:45.849Z,40.88
2024-05-09T12:22:16.589Z,41.45
2024-05-09T12:24:48.365Z,41.68
2024-05-09T12:27:18.790Z,41.59
2024-05-09T12:29:50.858Z,41.91
2024-05-09T12:32:21.395Z,42.06
2024-05-09T12:34:53.354Z,41.40
2024-05-09T12:37:24.188Z,40.31
2024-05-09T12:39:55.852Z,39.34
2024-05-09T12:42:28.094Z,38.28
2024-05-09T12:45:00.622Z,36.92
2024-05-09T12:47:31.290Z,35.64
2024-05-09T12:50:03.817Z,34.38
2024-05-09T12:52:34.311Z,33.38
2024-05-09T12:55:06.318Z,32.55
2024-05-09T12:57:36.827Z,31.81
2024-05-09T13:00:14.222Z,31.36
2024-05-09T13:02:53.610Z,30.87
2024-05-09T13:05:24.531Z,30.36
2024-05-09T13:07:56.803Z,29.90
2024-05-09T13:10:32.171Z,29.69
2024-05-09T13:13:05.240Z,29.62
2024-05-09T13:15:36.936Z,29.76
2024-05-09T13:18:08.704Z,30.34
2024-05-09T13:20:39.306Z,31.07
2024-05-09T13:23:10.879Z,31.60
2024-05-09T13:25:41.705Z,32.29
2024-05-09T13:28:13.248Z,33.82
2024-05-09T13:30:43.963Z,34.59
2024-05-09T13:33:15.918Z,34.43
2024-05-09T13:35:50.155Z,33.74
2024-05-09T13:38:22.582Z,33.33
2024-05-09T13:40:53.340Z,34.01
2024-05-09T13:43:25.556Z,35.21
2024-05-09T13:45:57.647Z,36.31
2024-05-09T13:48:29.387Z,36.21
2024-05-09T13:51:00.000Z,36.11
2024-05-09T13:53:31.850Z,36.52
2024-05-09T13:56:02.384Z,36.59
2024-05-09T13:58:34.351Z,36.34
2024-05-09T14:01:05.015Z,35.58
2024-05-09T14:03:37.329Z,34.67
2024-05-09T14:06:11.261Z,33.75
2024-05-09T14:08:44.666Z,32.53
2024-05-09T14:11:15.673Z,31.72
2024-05-09T14:13:47.668Z,31.16
2024-05-09T14:16:18.120Z,30.79
2024-05-09T14:18:50.409Z,30.44
2024-05-09T14:21:20.778Z,30.00
2024-05-09T14:23:52.355Z,29.59
2024-05-09T14:26:23.792Z,29.25
2024-05-09T14:28:55.346Z,29.18
2024-05-09T14:31:26.108Z,29.42
2024-05-09T14:33:58.050Z,30.13
2024-05-09T14:36:29.153Z,31.26
2024-05-09T14:39:00.843Z,32.49
2024-05-09T14:41:31.003Z,33.60
2024-05-09T14:44:02.730Z,34.44
2024-05-09T14:46:33.092Z,34.88
2024-05-09T14:49:05.107Z,35.27
2024-05-09T14:51:35.927Z,35.25
2024-05-09T14:54:07.701Z,35.47
2024-05-09T14:56:37.929Z,35.78
2024-05-09T14:59:09.791Z,35.99
2024-05-09T15:01:40.504Z,35.46
2024-05-09T15:04:12.338Z,34.62
2024-05-09T15:06:42.918Z,34.15
2024-05-09T15:09:14.758Z,33.89
2024-05-09T15:11:46.529Z,33.75
2024-05-09T15:14:18.110Z,33.61
2024-05-09T15:16:48.842Z,33.37
2024-05-09T15:19:20.874Z,33.46
2024-05-09T15:21:51.336Z,33.59
2024-05-09T15:24:23.165Z,33.58
2024-05-09T15:26:53.389Z,33.55
2024-05-09T15:29:26.283Z,33.22
2024-05-09T15:31:56.761Z,33.08
2024-05-09T15:34:30.370Z,33.03
2024-05-09T15:37:01.173Z,32.88
2024-05-09T15:39:33.138Z,32.75
2024-05-09T15:42:03.731Z,32.57
2024-05-09T15:44:36.057Z,32.46
2024-05-09T15:47:06.427Z,32.38
2024-05-09T15:49:38.368Z,32.26
2024-05-09T15:52:08.947Z,31.82
2024-05-09T15:54:40.794Z,31.31
2024-05-09T15:57:11.196Z,31.06
2024-05-09T15:59:42.850Z,30.95
2024-05-09T16:02:13.912Z,30.88
2024-05-09T16:04:46.079Z,30.79
2024-05-09T16:07:16.425Z,30.69
2024-05-09T16:09:48.155Z,30.45
2024-05-09T16:12:18.870Z,29.92
2024-05-09T16:14:51.152Z,29.28
2024-05-09T16:17:21.635Z,28.85
2024-05-09T16:19:53.393Z,28.45
2024-05-09T16:22:23.900Z,28.11
2024-05-09T16:24:55.785Z,27.97
2024-05-09T16:27:26.421Z,27.95
2024-05-09T16:30:03.993Z,27.89
2024-05-09T16:32:37.226Z,27.62
2024-05-09T16:35:07.589Z,27.41
2024-05-09T16:37:39.449Z,27.08
2024-05-09T16:40:21.687Z,26.79
2024-05-09T16:43:03.400Z,26.52
2024-05-09T16:45:34.298Z,26.12
2024-05-09T16:48:06.924Z,25.70
2024-05-09T16:50:37.615Z,25.35
2024-05-09T16:53:09.429Z,25.00
2024-05-09T16:55:40.063Z,24.48
2024-05-09T16:58:12.559Z,23.98
2024-05-09T17:00:44.275Z,23.52
2024-05-09T17:03:17.282Z,23.15
2024-05-09T17:05:48.706Z,22.88
2024-05-09T17:08:20.433Z,22.66
2024-05-09T17:10:51.517Z,22.48
2024-05-09T17:13:23.778Z,22.27
2024-05-09T17:15:54.501Z,22.07
2024-05-09T17:18:26.036Z,21.84
2024-05-09T17:20:57.128Z,21.63
2024-05-09T17:23:29.278Z,21.41
2024-05-09T17:26:01.352Z,21.21
2024-05-09T17:28:33.257Z,21.01
2024-05-09T17:31:03.960Z,20.81
2024-05-09T17:33:36.063Z,20.60
2024-05-09T17:36:06.746Z,20.40
2024-05-09T17:38:38.705Z,20.18
2024-05-09T17:41:09.344Z,19.95
2024-05-09T17:43:40.995Z,19.75
2024-05-09T17:46:11.646Z,19.54
2024-05-09T17:48:43.759Z,19.37
2024-05-09T17:51:14.428Z,19.18
2024-05-09T17:53:48.066Z,19.00
2024-05-09T17:56:19.076Z,18.83
2024-05-09T17:58:50.666Z,18.66
2024-05-09T18:01:21.681Z,18.48
2024-05-09T18:03:54.852Z,18.33
2024-05-09T18:06:25.589Z,18.18
2024-05-09T18:08:57.362Z,18.00
2024-05-09T18:11:28.089Z,17.83
2024-05-09T18:13:59.932Z,17.66
2024-05-09T18:16:30.389Z,17.50
2024-05-09T18:19:02.243Z,17.35
2024-05-09T18:21:33.138Z,17.22
2024-05-09T18:24:05.125Z,17.09
2024-05-09T18:26:35.225Z,16.94
2024-05-09T18:29:07.326Z,16.79
2024-05-09T18:31:37.905Z,16.62
2024-05-09T18:34:13.186Z,16.48
2024-05-09T18:36:46.807Z,16.36
2024-05-09T18:39:17.613Z,16.24
2024-05-09T18:41:49.093Z,16.12
2024-05-09T18:44:19.324Z,16.02
2024-05-09T18:46:51.773Z,15.91
2024-05-09T18:49:22.299Z,15.80
2024-05-09T18:51:53.975Z,15.72
2024-05-09T18:54:24.371Z,15.66
2024-05-09T18:56:56.336Z,15.59
2024-05-09T18:59:26.898Z,15.51
2024-05-09T19:01:58.753Z,15.45
2024-05-09T19:04:29.630Z,15.36
2024-05-09T19:07:02.684Z,15.26
2024-05-09T19:09:33.290Z,15.14
2024-05-09T19:12:06.612Z,15.02
2024-05-09T19:14:37.006Z,14.90
2024-05-09T19:17:09.442Z,14.75
2024-05-09T19:19:40.066Z,14.62
2024-05-09T19:22:11.880Z,14.45
2024-05-09T19:24:42.274Z,14.27
2024-05-09T19:27:14.046Z,14.12
2024-05-09T19:29:44.373Z,13.97
2024-05-09T19:32:15.853Z,13.83
2024-05-09T19:34:46.251Z,13.71
2024-05-09T19:37:17.971Z,13.61
2024-05-09T19:39:48.882Z,13.49
2024-05-09T19:42:20.583Z,13.38
2024-05-09T19:44:51.046Z,13.29
2024-05-09T19:47:22.860Z,13.19
2024-05-09T19:49:53.365Z,13.08
2024-05-09T19:52:24.965Z,12.98
2024-05-09T19:54:55.323Z,12.87
2024-05-09T19:57:26.752Z,12.76
2024-05-09T19:59:57.173Z,12.66
2024-05-09T20:02:29.069Z,12.57
2024-05-09T20:04:59.868Z,12.50
2024-05-09T20:07:34.272Z,12.44
2024-05-09T20:10:13.259Z,12.36
2024-05-09T20:12:48.799Z,12.29
2024-05-09T20:15:19.715Z,12.21
2024-05-09T20:17:51.804Z,12.11
2024-05-09T20:20:32.653Z,12.01
2024-05-09T20:23:10.665Z,11.92
2024-05-09T20:25:41.567Z,11.87
2024-05-09T20:28:12.997Z,11.84
2024-05-09T20:30:44.078Z,11.80
2024-05-09T20:33:15.742Z,11.76
2024-05-09T20:35:46.266Z,11.68
2024-05-09T20:38:17.824Z,11.55
2024-05-09T20:40:48.536Z,11.46
2024-05-09T20:43:20.738Z,11.39
2024-05-09T20:45:51.792Z,11.30
2024-05-09T20:48:24.753Z,11.27
2024-05-09T20:50:55.204Z,11.25
2024-05-09T20:53:27.008Z,11.20
2024-05-09T20:55:57.440Z,11.11
2024-05-09T20:58:30.170Z,11.02
2024-05-09T21:01:00.937Z,10.95
2024-05-09T21:03:33.407Z,10.84
2024-05-09T21:06:04.086Z,10.76
2024-05-09T21:08:36.248Z,10.66
2024-05-09T21:11:06.979Z,10.56
2024-05-09T21:13:38.479Z,10.49
2024-05-09T21:16:09.355Z,10.46
2024-05-09T21:18:41.304Z,10.37
2024-05-09T21:21:11.815Z,10.27
2024-05-09T21:23:43.516Z,10.17
2024-05-09T21:26:14.662Z,10.09
2024-05-09T21:28:46.134Z,10.02
2024-05-09T21:31:16.824Z,10.00
2024-05-09T21:33:48.616Z,9.97
2024-05-09T21:36:18.752Z,9.96
2024-05-09T21:38:50.675Z,9.92
2024-05-09T21:41:21.405Z,9.80
2024-05-09T21:43:53.057Z,9.67
2024-05-09T21:46:24.240Z,9.63
2024-05-09T21:48:56.024Z,9.62
2024-05-09T21:51:26.370Z,9.62
2024-05-09T21:53:58.858Z,9.62
2024-05-09T21:56:29.083Z,9.62
2024-05-09T21:59:01.721Z,9.59
2024-05-09T22:01:34.072Z,9.50
2024-05-09T22:04:06.080Z,9.45
2024-05-09T22:06:36.776Z,9.40
2024-05-09T22:09:08.569Z,9.34
2024-05-09T22:11:39.604Z,9.29
2024-05-09T22:14:11.665Z,9.21
2024-05-09T22:16:42.226Z,9.13
2024-05-09T22:19:13.954Z,9.10
2024-05-09T22:21:44.360Z,9.09
2024-05-09T22:24:16.238Z,9.05
2024-05-09T22:26:46.591Z,9.02
2024-05-09T22:29:18.327Z,9.00
2024-05-09T22:31:48.672Z,8.97
2024-05-09T22:34:20.569Z,8.92
2024-05-09T22:36:51.239Z,8.84
2024-05-09T22:39:26.104Z,8.79
2024-05-09T22:41:58.745Z,8.76
2024-05-09T22:44:29.207Z,8.69
2024-05-09T22:47:01.104Z,8.59
2024-05-09T22:49:31.458Z,8.49
2024-05-09T22:52:02.956Z,8.40
2024-05-09T22:54:33.414Z,8.29
2024-05-09T22:57:05.553Z,8.23
2024-05-09T22:59:36.082Z,8.18
2024-05-09T23:02:07.746Z,8.09
2024-05-09T23:04:38.800Z,7.98
2024-05-09T23:07:10.768Z,7.89
2024-05-09T23:09:41.072Z,7.85
2024-05-09T23:12:17.619Z,7.87
2024-05-09T23:14:49.079Z,7.89
2024-05-09T23:17:19.578Z,7.93
2024-05-09T23:19:51.159Z,7.95
2024-05-09T23:22:22.024Z,7.93
2024-05-09T23:24:53.777Z,7.93
2024-05-09T23:27:24.067Z,7.92
2024-05-09T23:29:56.034Z,7.91
2024-05-09T23:32:26.336Z,7.87
2024-05-09T23:34:58.262Z,7.84
2024-05-09T23:37:29.233Z,7.82
2024-05-09T23:40:00.990Z,7.80
2024-05-09T23:42:31.334Z,7.78
2024-05-09T23:45:03.689Z,7.74
2024-05-09T23:47:34.968Z,7.69
2024-05-09T23:50:13.756Z,7.64
2024-05-09T23:52:48.377Z,7.59
2024-05-09T23:55:21.493Z,7.54
2024-05-09T23:57:53.071Z,7.52
